Time;durP1;ratioP1;P1;durP2;ratioP2;P2;SDS_P1;SDS_P2;PMS_P1;PMS_P2;Temp;Humidity;BMP_temperature;BMP_pressure;BME280_temperature;BME280_humidity;BME280_pressure;Samples;Min_cycle;Max_cycle;Signal;HPM_P1;HPM_P2
2023/12/06 00:00:14;;;;;;;13.43;3.13;;;31.20;99.90;;;;;;5072940;28;20180;-76
2023/12/06 00:02:41;;;;;;;11.97;2.87;;;31.00;99.90;;;;;;5073566;28;20184;-78
2023/12/06 00:05:10;;;;;;;13.80;3.10;;;31.10;99.90;;;;;;5072757;28;20187;-78
2023/12/06 00:07:40;;;;;;;6.97;2.10;;;30.80;99.90;;;;;;5072066;28;20200;-69
2023/12/06 00:10:08;;;;;;;14.40;3.30;;;30.80;99.90;;;;;;5072505;28;20195;-70
2023/12/06 00:12:36;;;;;;;10.70;2.63;;;30.60;99.90;;;;;;5071553;28;20183;-73
2023/12/06 00:15:03;;;;;;;14.63;3.55;;;30.70;99.90;;;;;;5078368;28;20179;-70
2023/12/06 00:17:31;;;;;;;13.82;2.92;;;31.30;99.90;;;;;;5073103;28;20172;-69
2023/12/06 00:19:58;;;;;;;6.73;2.30;;;31.00;99.90;;;;;;5076392;28;20188;-72
2023/12/06 00:22:25;;;;;;;10.65;2.55;;;30.90;99.90;;;;;;5073278;28;20616;-69
2023/12/06 00:24:53;;;;;;;18.30;3.47;;;31.10;99.90;;;;;;5073580;28;20195;-72
2023/12/06 00:27:21;;;;;;;15.63;3.00;;;31.20;99.90;;;;;;5077140;28;20172;-77
2023/12/06 00:29:48;;;;;;;13.30;3.30;;;31.00;99.90;;;;;;5074638;28;20921;-70
2023/12/06 00:32:16;;;;;;;9.80;2.53;;;31.60;99.90;;;;;;5074300;28;20180;-68
2023/12/06 00:34:43;;;;;;;13.43;3.20;;;31.60;99.90;;;;;;5078485;28;20211;-73
2023/12/06 00:37:11;;;;;;;15.60;2.85;;;31.50;99.90;;;;;;5073202;28;20225;-72
2023/12/06 00:39:38;;;;;;;11.23;2.60;;;31.40;99.90;;;;;;5076106;28;20578;-71
2023/12/06 00:42:06;;;;;;;15.30;2.90;;;31.50;99.90;;;;;;5074902;28;20716;-69
2023/12/06 00:44:33;;;;;;;9.90;2.40;;;31.40;99.90;;;;;;5081747;28;20211;-70
2023/12/06 00:47:01;;;;;;;14.30;3.83;;;31.10;99.90;;;;;;5076721;28;20180;-74
2023/12/06 00:49:28;;;;;;;18.40;3.73;;;30.80;99.90;;;;;;5078484;28;20219;-75
2023/12/06 00:51:55;;;;;;;11.52;2.63;;;30.80;99.90;;;;;;5077084;28;20536;-78
2023/12/06 00:54:22;;;;;;;14.18;2.75;;;31.00;99.90;;;;;;5077635;28;20176;-76
2023/12/06 00:56:50;;;;;;;21.08;3.22;;;31.20;99.90;;;;;;5089573;28;20182;-75
2023/12/06 00:59:17;;;;;;;14.02;2.85;;;31.20;99.90;;;;;;5078289;28;20679;-69
2023/12/06 01:01:45;;;;;;;11.93;3.03;;;31.60;99.90;;;;;;5075771;28;20183;-73
2023/12/06 01:04:12;;;;;;;22.27;3.33;;;32.00;99.90;;;;;;5076546;28;20202;-75
2023/12/06 01:06:39;;;;;;;10.65;2.30;;;31.60;99.90;;;;;;5074661;28;20177;-73
2023/12/06 01:09:07;;;;;;;13.80;3.45;;;31.60;99.90;;;;;;5072277;28;20207;-73
2023/12/06 01:11:35;;;;;;;16.80;3.28;;;31.80;99.90;;;;;;5072682;28;20172;-71
2023/12/06 01:14:02;;;;;;;10.63;3.22;;;31.80;99.90;;;;;;5072792;28;20210;-73
2023/12/06 01:16:30;;;;;;;13.10;3.22;;;31.90;99.90;;;;;;5073310;28;20230;-72
2023/12/06 01:18:58;;;;;;;15.60;3.00;;;32.10;99.90;;;;;;5073057;28;20195;-68
2023/12/06 01:21:25;;;;;;;11.20;2.53;;;31.40;99.90;;;;;;5073360;28;20186;-70
2023/12/06 01:23:52;;;;;;;11.75;3.22;;;31.70;99.90;;;;;;5072933;28;20183;-68
2023/12/06 01:26:20;;;;;;;13.48;2.70;;;31.60;99.90;;;;;;5072519;28;20536;-69
2023/12/06 01:28:47;;;;;;;13.27;2.40;;;31.90;99.90;;;;;;5072794;28;20228;-69
2023/12/06 01:31:14;;;;;;;15.18;2.60;;;32.30;99.90;;;;;;5073321;28;20167;-69
2023/12/06 01:33:42;;;;;;;13.20;3.30;;;32.30;99.90;;;;;;5051998;28;20232;-68
2023/12/06 01:36:09;;;;;;;13.35;3.22;;;32.20;99.90;;;;;;5071642;28;20184;-69
2023/12/06 01:38:37;;;;;;;13.52;4.07;;;32.10;99.90;;;;;;5071713;28;20183;-69
2023/12/06 01:41:04;;;;;;;17.02;3.28;;;31.90;99.90;;;;;;5071265;28;20192;-72
2023/12/06 01:43:32;;;;;;;14.05;2.80;;;31.80;99.90;;;;;;5072855;28;20660;-75
2023/12/06 01:45:59;;;;;;;14.93;2.50;;;31.90;99.90;;;;;;5072385;28;20180;-76
2023/12/06 01:48:27;;;;;;;14.90;2.88;;;31.90;99.90;;;;;;5074866;28;20207;-73
2023/12/06 01:50:55;;;;;;;12.80;2.60;;;31.90;99.90;;;;;;5075148;28;20631;-74
2023/12/06 01:53:23;;;;;;;11.70;3.13;;;31.60;99.90;;;;;;5075891;28;20257;-74
2023/12/06 01:55:51;;;;;;;13.48;2.78;;;31.50;99.90;;;;;;5072477;28;20342;-73
2023/12/06 01:58:19;;;;;;;14.53;3.07;;;31.60;99.90;;;;;;5074609;28;20335;-72
2023/12/06 02:00:47;;;;;;;11.52;2.70;;;31.80;99.90;;;;;;5074157;28;20703;-69
2023/12/06 02:03:15;;;;;;;14.50;3.45;;;32.20;99.80;;;;;;5073520;28;20192;-68
2023/12/06 02:05:44;;;;;;;9.68;3.17;;;32.10;99.90;;;;;;5064587;28;20180;-73
2023/12/06 02:08:12;;;;;;;8.55;3.30;;;32.00;99.90;;;;;;5074145;28;20222;-69
2023/12/06 02:10:39;;;;;;;12.25;3.60;;;32.50;99.90;;;;;;5073571;28;20180;-71
2023/12/06 02:13:08;;;;;;;13.48;2.97;;;32.30;99.50;;;;;;5075103;28;20210;-74
2023/12/06 02:15:36;;;;;;;12.27;2.28;;;31.70;99.90;;;;;;5075734;28;20176;-76
2023/12/06 02:18:04;;;;;;;15.13;4.20;;;32.00;98.10;;;;;;5075405;28;20180;-74
2023/12/06 02:20:32;;;;;;;11.48;3.05;;;31.60;99.40;;;;;;5075095;28;20192;-74
2023/12/06 02:23:00;;;;;;;10.40;2.83;;;31.60;99.90;;;;;;5075622;28;20689;-72
2023/12/06 02:25:27;;;;;;;18.02;3.65;;;31.60;99.40;;;;;;5075300;28;20187;-68
2023/12/06 02:27:55;;;;;;;15.45;3.10;;;31.20;99.90;;;;;;5075791;28;20211;-70
2023/12/06 02:30:22;;;;;;;12.83;3.10;;;31.10;99.90;;;;;;5074927;28;20323;-74
2023/12/06 02:36:12;;;;;;;14.38;3.00;;;31.40;99.90;;;;;;5074274;28;20195;-71
2023/12/06 02:38:41;;;;;;;13.40;3.00;;;31.90;99.90;;;;;;5075592;28;20263;-73
2023/12/06 02:41:11;;;;;;;17.77;3.25;;;31.80;99.90;;;;;;5075072;28;20191;-74
2023/12/06 02:43:39;;;;;;;10.70;2.90;;;31.70;99.90;;;;;;5074193;28;20172;-74
2023/12/06 02:46:07;;;;;;;12.33;3.30;;;31.80;99.90;;;;;;5075276;28;20259;-74
2023/12/06 02:48:35;;;;;;;14.85;2.92;;;31.60;99.90;;;;;;5077161;28;20216;-75
2023/12/06 02:51:02;;;;;;;13.82;2.97;;;31.80;99.90;;;;;;5077115;28;20191;-75
2023/12/06 02:53:29;;;;;;;15.87;3.23;;;31.50;99.60;;;;;;5075224;28;20259;-75
2023/12/06 02:55:57;;;;;;;13.20;2.33;;;31.20;99.90;;;;;;5074416;28;20271;-72
2023/12/06 02:58:24;;;;;;;16.77;2.83;;;31.30;99.90;;;;;;5073048;28;20568;-74
2023/12/06 03:00:51;;;;;;;11.07;2.60;;;31.50;99.90;;;;;;5074756;28;20188;-75
2023/12/06 03:03:19;;;;;;;8.45;2.70;;;31.60;99.10;;;;;;5052625;28;20190;-70
2023/12/06 03:05:46;;;;;;;9.93;2.33;;;31.70;97.60;;;;;;5074060;28;20234;-73
2023/12/06 03:08:14;;;;;;;14.30;2.57;;;31.90;89.00;;;;;;5073289;28;20214;-74
2023/12/06 03:10:41;;;;;;;8.10;2.70;;;31.70;96.20;;;;;;5069664;28;20184;-71
2023/12/06 03:13:09;;;;;;;9.25;2.60;;;31.60;99.90;;;;;;5072531;28;20182;-71
2023/12/06 03:15:36;;;;;;;17.77;3.13;;;31.50;99.40;;;;;;5073583;28;20214;-72
2023/12/06 03:18:04;;;;;;;12.07;2.33;;;31.30;98.70;;;;;;5074234;28;20175;-72
2023/12/06 03:20:32;;;;;;;10.52;3.08;;;31.80;94.10;;;;;;5074224;28;20176;-72
2023/12/06 03:23:00;;;;;;;14.18;2.95;;;31.70;91.50;;;;;;5073003;28;20514;-72
2023/12/06 03:25:27;;;;;;;14.48;3.28;;;31.60;97.30;;;;;;5073462;28;20641;-72
2023/12/06 03:27:55;;;;;;;9.37;3.40;;;31.60;96.30;;;;;;5074162;28;20564;-72
2023/12/06 03:30:23;;;;;;;10.73;2.95;;;31.50;92.20;;;;;;5072776;28;20318;-72
2023/12/06 03:32:51;;;;;;;10.18;3.35;;;31.70;97.80;;;;;;5073068;28;20194;-72
2023/12/06 03:35:19;;;;;;;16.17;3.60;;;31.80;99.60;;;;;;5074074;28;20632;-72
2023/12/06 03:37:46;;;;;;;15.65;4.20;;;31.30;96.10;;;;;;5074056;28;20625;-72
2023/12/06 03:40:13;;;;;;;14.87;3.13;;;31.20;96.60;;;;;;5074412;28;20172;-71
2023/12/06 03:42:42;;;;;;;13.73;3.70;;;30.80;99.30;;;;;;5074117;28;20262;-71
2023/12/06 03:45:09;;;;;;;14.50;6.53;;;30.30;99.20;;;;;;5074085;28;20184;-71
2023/12/06 03:47:37;;;;;;;11.23;4.03;;;30.20;99.80;;;;;;5072661;28;20181;-71
2023/12/06 03:50:05;;;;;;;11.82;2.75;;;30.00;99.90;;;;;;5072625;28;20191;-72
2023/12/06 03:52:32;;;;;;;8.57;2.47;;;30.10;99.90;;;;;;5073889;28;20676;-72
2023/12/06 03:55:00;;;;;;;14.27;4.30;;;30.20;99.90;;;;;;5073919;28;20171;-73
2023/12/06 03:57:27;;;;;;;10.87;4.80;;;29.80;99.80;;;;;;5073871;28;20167;-73
2023/12/06 03:59:54;;;;;;;11.13;3.53;;;29.70;98.10;;;;;;5073757;28;20187;-72
2023/12/06 04:02:22;;;;;;;10.20;3.10;;;29.80;99.90;;;;;;5073778;28;20242;-72
2023/12/06 04:04:49;;;;;;;19.53;8.73;;;30.10;99.90;;;;;;5073606;28;20262;-71
2023/12/06 04:07:16;;;;;;;25.60;10.97;;;30.40;99.90;;;;;;5073658;28;20180;-71
2023/12/06 04:09:44;;;;;;;22.93;9.97;;;30.40;99.90;;;;;;5072903;28;20251;-72
2023/12/06 04:12:11;;;;;;;19.23;6.17;;;30.30;99.90;;;;;;5073563;28;20188;-72
2023/12/06 04:14:39;;;;;;;22.77;7.10;;;30.70;99.90;;;;;;5073520;28;20180;-72
2023/12/06 04:17:07;;;;;;;14.88;5.78;;;31.30;99.90;;;;;;5073277;28;20176;-71
2023/12/06 04:19:34;;;;;;;16.07;3.60;;;31.20;99.90;;;;;;5073298;28;20214;-73
2023/12/06 04:22:02;;;;;;;11.20;3.90;;;30.50;99.90;;;;;;5073484;28;20171;-72
2023/12/06 04:24:30;;;;;;;18.43;8.73;;;30.40;99.10;;;;;;5073376;28;20523;-72
2023/12/06 04:26:57;;;;;;;17.83;10.15;;;30.40;99.90;;;;;;5073643;28;20203;-71
2023/12/06 04:29:25;;;;;;;17.40;7.65;;;31.10;97.30;;;;;;5073035;28;20258;-72
2023/12/06 04:31:55;;;;;;;17.27;8.80;;;30.90;94.80;;;;;;5072135;28;20215;-70
2023/12/06 04:34:22;;;;;;;20.03;7.30;;;30.90;91.80;;;;;;5073323;28;20194;-70
2023/12/06 04:36:50;;;;;;;19.17;7.47;;;30.90;98.10;;;;;;5072973;28;20578;-71
2023/12/06 04:39:17;;;;;;;13.90;5.32;;;31.00;96.80;;;;;;5073253;28;20524;-71
2023/12/06 04:41:45;;;;;;;11.02;4.13;;;30.70;94.40;;;;;;5073419;28;20179;-71
2023/12/06 04:44:12;;;;;;;15.75;6.32;;;30.30;84.50;;;;;;5073340;28;20172;-72
2023/12/06 04:46:40;;;;;;;16.27;6.63;;;30.50;90.20;;;;;;5073197;28;20532;-72
2023/12/06 04:49:08;;;;;;;15.83;6.83;;;30.80;92.50;;;;;;5073247;28;20223;-70
2023/12/06 04:51:41;;;;;;;16.67;4.93;;;30.80;94.70;;;;;;5073559;28;20183;-71
2023/12/06 04:54:12;;;;;;;10.10;3.53;;;30.40;94.20;;;;;;5073624;28;20187;-71
2023/12/06 04:56:55;;;;;;;14.20;5.13;;;30.20;96.30;;;;;;5072317;28;20183;-72
2023/12/06 04:59:23;;;;;;;16.17;6.20;;;30.20;93.80;;;;;;5073680;28;20183;-71
2023/12/06 05:01:50;;;;;;;16.33;9.50;;;29.90;97.60;;;;;;5073564;28;20271;-71
2023/12/06 05:04:18;;;;;;;24.60;11.50;;;29.90;98.80;;;;;;5072313;28;20236;-71
2023/12/06 05:06:49;;;;;;;21.63;8.07;;;29.90;99.10;;;;;;5073322;28;20176;-71
2023/12/06 05:09:20;;;;;;;26.70;10.60;;;29.90;99.90;;;;;;5071802;28;20264;-71
2023/12/06 05:11:48;;;;;;;22.23;10.90;;;30.00;99.90;;;;;;5071937;28;20175;-73
2023/12/06 05:14:16;;;;;;;24.43;11.17;;;29.80;99.90;;;;;;5071777;28;20543;-71
2023/12/06 05:16:46;;;;;;;37.23;17.40;;;29.60;99.90;;;;;;5073035;28;20302;-71
2023/12/06 05:19:14;;;;;;;23.57;9.87;;;29.40;99.90;;;;;;5072036;28;20180;-72
2023/12/06 05:21:53;;;;;;;15.60;7.87;;;29.20;99.90;;;;;;5073798;28;20596;-72
2023/12/06 05:24:21;;;;;;;18.90;7.33;;;29.20;99.90;;;;;;5075625;28;20189;-72
2023/12/06 05:26:51;;;;;;;19.37;8.50;;;29.10;99.90;;;;;;5075700;28;20188;-72
2023/12/06 05:29:19;;;;;;;17.13;7.77;;;29.50;99.90;;;;;;5075095;28;20235;-71
2023/12/06 05:31:46;;;;;;;18.40;6.77;;;29.50;99.90;;;;;;5075491;28;20184;-71
2023/12/06 05:34:15;;;;;;;18.60;6.30;;;29.40;99.90;;;;;;5075317;28;20200;-71
2023/12/06 05:36:45;;;;;;;15.97;4.80;;;29.30;99.90;;;;;;5076669;28;20207;-72
2023/12/06 05:39:12;;;;;;;20.50;5.30;;;29.50;99.90;;;;;;5075692;28;20612;-71
2023/12/06 05:41:46;;;;;;;18.73;5.33;;;29.30;99.90;;;;;;5076926;28;20176;-73
2023/12/06 05:44:14;;;;;;;15.63;4.90;;;29.30;99.90;;;;;;5077352;28;20172;-71
2023/12/06 05:46:42;;;;;;;16.97;5.90;;;29.60;99.90;;;;;;5076964;28;20540;-71
2023/12/06 05:49:10;;;;;;;19.47;4.07;;;29.70;99.90;;;;;;5075443;28;20219;-71
2023/12/06 05:51:37;;;;;;;20.93;5.20;;;29.30;99.90;;;;;;5075320;28;20219;-71
2023/12/06 05:54:04;;;;;;;15.70;5.40;;;29.00;99.90;;;;;;5076152;28;20206;-71
2023/12/06 05:56:32;;;;;;;19.07;5.07;;;28.80;99.90;;;;;;5074668;28;20702;-71
2023/12/06 05:58:59;;;;;;;17.70;5.60;;;28.90;99.90;;;;;;5075849;28;20180;-72
2023/12/06 06:01:26;;;;;;;18.13;4.63;;;28.70;99.90;;;;;;5075889;28;20179;-72
2023/12/06 06:03:54;;;;;;;14.33;3.77;;;28.60;99.90;;;;;;5076172;28;20172;-71
2023/12/06 06:06:21;;;;;;;11.00;3.27;;;28.20;99.90;;;;;;5075945;28;20187;-72
2023/12/06 06:08:48;;;;;;;16.43;3.73;;;28.20;99.90;;;;;;5076000;28;20660;-71
2023/12/06 06:11:16;;;;;;;11.47;3.13;;;28.20;99.90;;;;;;5076089;28;20278;-71
2023/12/06 06:13:43;;;;;;;14.67;5.10;;;28.50;99.90;;;;;;5074496;28;20191;-71
2023/12/06 06:16:19;;;;;;;13.13;4.23;;;28.50;99.90;;;;;;5075563;28;20526;-72
2023/12/06 06:18:46;;;;;;;13.97;3.47;;;28.60;99.90;;;;;;5076145;28;20286;-71
2023/12/06 06:21:13;;;;;;;20.40;3.20;;;28.30;99.90;;;;;;5075816;28;20172;-71
2023/12/06 06:23:41;;;;;;;11.30;3.17;;;27.90;99.90;;;;;;5075847;28;20176;-71
2023/12/06 06:26:11;;;;;;;14.17;3.13;;;27.70;99.90;;;;;;5075542;28;20172;-71
2023/12/06 06:28:38;;;;;;;15.07;3.63;;;27.50;99.90;;;;;;5075547;28;20302;-71
2023/12/06 06:31:06;;;;;;;14.03;3.10;;;27.60;99.90;;;;;;5074867;28;20641;-72
2023/12/06 06:33:47;;;;;;;13.40;2.77;;;27.70;99.90;;;;;;5076371;28;20180;-71
2023/12/06 06:36:22;;;;;;;10.70;2.37;;;27.50;99.90;;;;;;5075241;28;20238;-72
2023/12/06 06:38:57;;;;;;;12.20;2.63;;;27.00;99.90;;;;;;5076590;28;20228;-74
2023/12/06 06:41:31;;;;;;;12.90;2.93;;;26.90;99.90;;;;;;5058745;28;20182;-71
2023/12/06 06:44:04;;;;;;;10.73;3.07;;;26.80;99.90;;;;;;5075225;28;20278;-71
2023/12/06 06:50:03;;;;;;;13.07;3.03;;;26.60;99.90;;;;;;5076229;28;20280;-72
2023/12/06 06:52:37;;;;;;;16.10;2.80;;;26.30;99.90;;;;;;5076335;28;20633;-72
2023/12/06 06:55:20;;;;;;;19.13;3.70;;;26.30;99.90;;;;;;5076728;28;20182;-72
2023/12/06 06:58:01;;;;;;;;;;;;;;;;;;;;;
2023/12/06 07:00:36;;;;;;;15.13;3.63;;;26.40;99.90;;;;;;5075971;28;20274;-72
2023/12/06 07:03:14;;;;;;;15.27;3.40;;;26.50;99.90;;;;;;5077221;28;20258;-72
2023/12/06 07:05:43;;;;;;;12.50;3.63;;;26.60;99.90;;;;;;5074657;28;20222;-72
2023/12/06 07:08:11;;;;;;;14.43;3.40;;;26.60;99.90;;;;;;5075422;28;20571;-70
2023/12/06 07:10:47;;;;;;;14.27;3.03;;;26.80;99.90;;;;;;5075358;28;20184;-71
2023/12/06 07:13:14;;;;;;;10.53;2.93;;;27.10;99.90;;;;;;5075272;28;20182;-71
2023/12/06 07:15:46;;;;;;;15.23;2.97;;;27.10;99.90;;;;;;5074170;28;20184;-72
2023/12/06 07:18:23;;;;;;;17.57;3.47;;;26.70;99.90;;;;;;5074406;28;20192;-72
2023/12/06 07:20:51;;;;;;;12.33;3.00;;;26.30;99.90;;;;;;5076558;28;20198;-70
2023/12/06 07:23:25;;;;;;;19.50;3.33;;;26.40;99.90;;;;;;5076026;28;20259;-72
2023/12/06 07:25:56;;;;;;;15.13;3.23;;;26.70;99.90;;;;;;5075412;28;20175;-72
2023/12/06 07:28:30;;;;;;;20.47;3.67;;;26.70;99.90;;;;;;5073262;28;20215;-71
2023/12/06 07:31:09;;;;;;;19.17;3.63;;;26.60;99.90;;;;;;5074890;28;20274;-72
2023/12/06 07:33:39;;;;;;;17.03;3.50;;;26.50;99.90;;;;;;5072981;28;20180;-71
2023/12/06 07:36:07;;;;;;;14.33;3.20;;;26.40;99.90;;;;;;5074396;28;20168;-71
2023/12/06 07:38:34;;;;;;;12.73;3.47;;;26.30;99.90;;;;;;5074557;28;20188;-72
2023/12/06 07:41:02;;;;;;;15.27;2.90;;;26.30;99.90;;;;;;5074112;28;20313;-72
2023/12/06 07:43:29;;;;;;;14.33;3.53;;;26.30;99.90;;;;;;5073977;28;20263;-72
2023/12/06 07:45:56;;;;;;;14.40;3.40;;;26.10;99.90;;;;;;5073394;28;20655;-73
2023/12/06 07:48:25;;;;;;;16.17;3.40;;;26.20;99.90;;;;;;5073852;28;20208;-72
2023/12/06 07:50:53;;;;;;;13.83;3.60;;;26.00;99.90;;;;;;5074110;28;20176;-72
2023/12/06 07:53:21;;;;;;;14.70;3.57;;;25.90;99.90;;;;;;5074070;28;20542;-72
2023/12/06 07:55:49;;;;;;;20.33;4.20;;;26.00;99.90;;;;;;5073684;28;20184;-72
2023/12/06 07:58:17;;;;;;;16.37;3.67;;;25.80;99.90;;;;;;5073835;28;20222;-72
2023/12/06 08:00:44;;;;;;;21.20;4.03;;;25.70;99.90;;;;;;5073760;28;20180;-72
2023/12/06 08:03:11;;;;;;;18.50;3.63;;;25.60;99.90;;;;;;5073956;28;20180;-72
2023/12/06 08:05:39;;;;;;;14.73;3.17;;;25.60;99.90;;;;;;5073633;28;20187;-72
2023/12/06 08:08:06;;;;;;;11.53;3.20;;;25.50;99.90;;;;;;5073548;28;20718;-74
2023/12/06 08:10:34;;;;;;;19.23;3.70;;;25.40;99.90;;;;;;5073724;28;20175;-72
2023/12/06 08:13:02;;;;;;;26.43;3.70;;;25.40;99.90;;;;;;5073697;28;20230;-72
2023/12/06 08:15:31;;;;;;;16.83;3.47;;;25.20;99.90;;;;;;5072257;28;20659;-72
2023/12/06 08:17:58;;;;;;;14.07;3.93;;;25.00;99.90;;;;;;5073653;28;20212;-73
2023/12/06 08:20:25;;;;;;;18.17;3.93;;;24.80;99.90;;;;;;5073529;28;20168;-72
2023/12/06 08:22:53;;;;;;;11.97;3.10;;;24.70;99.90;;;;;;5073396;28;20168;-72
2023/12/06 08:25:21;;;;;;;12.47;3.03;;;24.70;99.90;;;;;;5073612;28;20196;-72
2023/12/06 08:27:48;;;;;;;16.17;3.60;;;24.60;99.90;;;;;;5072081;28;20187;-73
2023/12/06 08:30:16;;;;;;;26.17;4.73;;;24.50;99.90;;;;;;5073355;28;20705;-72
2023/12/06 08:32:43;;;;;;;20.93;4.67;;;24.40;99.90;;;;;;5073579;28;20175;-72
2023/12/06 08:35:10;;;;;;;22.87;4.57;;;24.30;99.90;;;;;;5073343;28;20263;-73
2023/12/06 08:37:39;;;;;;;20.90;4.57;;;24.10;99.90;;;;;;5073342;28;20172;-71
2023/12/06 08:40:09;;;;;;;20.53;3.47;;;23.90;99.90;;;;;;5073172;28;20613;-73
2023/12/06 08:42:36;;;;;;;24.00;3.80;;;23.80;99.90;;;;;;5073391;28;20186;-72
2023/12/06 08:45:04;;;;;;;20.67;4.63;;;23.70;99.90;;;;;;5071932;28;20187;-72
2023/12/06 08:47:32;;;;;;;16.07;3.70;;;23.60;99.90;;;;;;5073070;28;20168;-73
2023/12/06 08:50:00;;;;;;;10.93;3.30;;;23.60;99.90;;;;;;5072844;28;20220;-72
2023/12/06 08:52:27;;;;;;;10.70;3.40;;;23.60;99.90;;;;;;5073123;28;20164;-73
2023/12/06 08:54:54;;;;;;;21.70;3.90;;;23.50;99.90;;;;;;5073060;28;20234;-74
2023/12/06 08:57:21;;;;;;;19.33;3.50;;;23.60;99.90;;;;;;5076338;28;20168;-73
2023/12/06 08:59:49;;;;;;;18.63;4.23;;;23.60;99.90;;;;;;5077374;28;20203;-72
2023/12/06 09:02:16;;;;;;;23.33;4.37;;;23.50;99.90;;;;;;5077195;28;20164;-72
2023/12/06 09:04:43;;;;;;;18.87;4.07;;;23.40;99.90;;;;;;5077297;28;20176;-71
2023/12/06 09:07:11;;;;;;;19.77;4.63;;;23.30;99.90;;;;;;5077317;28;20636;-72
2023/12/06 09:09:38;;;;;;;21.27;4.03;;;23.30;99.90;;;;;;5076890;28;20576;-72
2023/12/06 09:12:05;;;;;;;16.47;3.30;;;23.20;99.90;;;;;;5075594;28;20191;-72
2023/12/06 09:14:33;;;;;;;19.23;3.77;;;23.20;99.90;;;;;;5076889;28;20292;-71
2023/12/06 09:17:00;;;;;;;22.43;4.50;;;23.10;99.90;;;;;;5076825;28;20175;-73
2023/12/06 09:19:27;;;;;;;21.40;3.73;;;23.10;99.90;;;;;;5076806;28;20203;-71
2023/12/06 09:21:54;;;;;;;17.60;3.70;;;23.00;99.90;;;;;;5076923;28;20168;-73
2023/12/06 09:24:22;;;;;;;16.63;3.87;;;23.00;99.90;;;;;;5076786;28;20195;-72
2023/12/06 09:26:50;;;;;;;17.80;4.07;;;23.00;99.90;;;;;;5076930;28;20259;-72
2023/12/06 09:29:17;;;;;;;18.97;3.93;;;23.00;99.90;;;;;;5075354;28;20326;-73
2023/12/06 09:31:44;;;;;;;23.83;3.80;;;22.90;99.90;;;;;;5076612;28;20164;-73
2023/12/06 09:34:12;;;;;;;19.93;4.13;;;22.80;99.90;;;;;;5076412;28;20179;-71
2023/12/06 09:36:39;;;;;;;17.13;3.77;;;22.80;99.90;;;;;;5076747;28;20529;-72
2023/12/06 09:39:07;;;;;;;18.10;3.37;;;22.80;99.90;;;;;;5076612;28;20570;-71
2023/12/06 09:41:34;;;;;;;20.67;3.70;;;22.80;99.90;;;;;;5075350;28;20645;-71
2023/12/06 09:44:02;;;;;;;21.70;3.37;;;22.80;99.90;;;;;;5076161;28;20172;-71
2023/12/06 09:46:30;;;;;;;19.40;3.50;;;22.80;99.90;;;;;;5076211;28;20168;-71
2023/12/06 09:48:58;;;;;;;17.27;3.70;;;22.80;99.90;;;;;;5076060;28;20732;-71
2023/12/06 09:51:25;;;;;;;24.27;4.03;;;22.70;99.90;;;;;;5076128;28;20171;-71
2023/12/06 09:53:53;;;;;;;21.20;4.43;;;22.70;99.90;;;;;;5074779;28;20261;-72
2023/12/06 09:56:21;;;;;;;13.40;3.13;;;22.60;99.90;;;;;;5076518;28;20629;-72
2023/12/06 09:58:48;;;;;;;16.80;3.80;;;22.60;99.90;;;;;;5075483;28;20194;-72
2023/12/06 10:01:15;;;;;;;15.97;3.20;;;22.50;99.90;;;;;;5075940;28;20180;-71
2023/12/06 10:03:43;;;;;;;22.30;4.03;;;22.50;99.90;;;;;;5076051;28;20258;-72
2023/12/06 10:06:11;;;;;;;21.30;3.73;;;22.50;99.90;;;;;;5075900;28;20176;-71
2023/12/06 10:08:38;;;;;;;22.60;3.43;;;22.50;99.90;;;;;;5074660;28;20676;-71
2023/12/06 10:11:07;;;;;;;12.67;3.70;;;22.50;99.90;;;;;;5075922;28;20173;-70
2023/12/06 10:13:36;;;;;;;12.63;3.53;;;22.40;99.90;;;;;;5074583;28;20184;-71
2023/12/06 10:16:23;;;;;;;20.07;3.77;;;22.40;99.90;;;;;;5075699;28;20237;-71
2023/12/06 10:18:55;;;;;;;15.70;3.37;;;22.40;99.90;;;;;;5075807;28;20680;-71
2023/12/06 10:21:22;;;;;;;15.43;3.50;;;22.40;99.90;;;;;;5074572;28;20294;-71
2023/12/06 10:23:57;;;;;;;16.93;3.80;;;22.40;99.90;;;;;;5075605;28;20178;-70
2023/12/06 10:26:31;;;;;;;16.50;3.17;;;22.40;99.90;;;;;;5074404;28;20186;-70
2023/12/06 10:28:59;;;;;;;12.87;3.23;;;22.30;99.90;;;;;;5075362;28;20231;-71
2023/12/06 10:31:27;;;;;;;18.73;4.13;;;22.30;99.90;;;;;;5075698;28;20180;-71
2023/12/06 10:33:58;;;;;;;16.60;3.40;;;22.30;99.90;;;;;;5075372;28;20168;-72
2023/12/06 10:36:29;;;;;;;13.87;3.40;;;22.20;99.90;;;;;;5075342;28;20502;-71
2023/12/06 10:38:57;;;;;;;20.43;3.70;;;22.20;99.90;;;;;;5075362;28;20585;-71
2023/12/06 10:41:26;;;;;;;21.27;3.70;;;22.10;99.90;;;;;;5075274;28;20529;-71
2023/12/06 10:43:56;;;;;;;21.50;3.77;;;22.10;99.90;;;;;;5075326;28;20204;-71
2023/12/06 10:46:25;;;;;;;19.10;3.27;;;22.10;99.90;;;;;;5075067;28;20652;-71
2023/12/06 10:48:53;;;;;;;20.13;3.33;;;22.10;99.90;;;;;;5074938;28;20214;-71
2023/12/06 10:51:21;;;;;;;19.03;3.93;;;22.10;99.90;;;;;;5075236;28;20184;-70
2023/12/06 10:53:49;;;;;;;16.37;3.87;;;22.10;99.90;;;;;;5074007;28;20649;-70
2023/12/06 10:56:17;;;;;;;18.57;3.17;;;22.10;99.90;;;;;;5073392;28;20182;-72
2023/12/06 10:58:46;;;;;;;20.30;3.83;;;22.00;99.90;;;;;;5075339;28;20187;-70
2023/12/06 11:01:15;;;;;;;13.20;3.60;;;22.00;99.90;;;;;;5075529;28;20183;-70
2023/12/06 11:03:43;;;;;;;25.50;4.57;;;21.90;99.90;;;;;;5073961;28;20176;-70
2023/12/06 11:06:49;;;;;;;19.07;3.93;;;21.90;99.90;;;;;;5074970;28;20614;-70
2023/12/06 11:09:52;;;;;;;13.93;3.77;;;21.80;99.90;;;;;;5074767;28;20290;-72
2023/12/06 11:12:41;;;;;;;16.47;3.50;;;21.70;99.90;;;;;;5073166;28;20187;-74
2023/12/06 11:15:46;;;;;;;14.93;4.20;;;21.70;99.90;;;;;;5074827;28;20175;-70
2023/12/06 11:18:26;;;;;;;20.90;4.00;;;21.80;99.90;;;;;;5077636;28;20200;-70
2023/12/06 11:20:57;;;;;;;16.17;4.00;;;21.70;99.90;;;;;;5074646;28;20187;-71
2023/12/06 11:23:27;;;;;;;13.57;3.83;;;21.70;99.90;;;;;;5074851;28;20245;-74
2023/12/06 11:25:54;;;;;;;24.67;3.93;;;21.70;99.90;;;;;;5074874;28;20206;-75
2023/12/06 11:28:22;;;;;;;17.90;3.37;;;21.70;99.90;;;;;;5075008;28;20687;-70
2023/12/06 11:30:56;;;;;;;15.47;3.97;;;21.70;99.90;;;;;;5073834;28;20627;-78
2023/12/06 11:33:24;;;;;;;14.63;3.20;;;21.60;99.90;;;;;;5073904;28;20180;-70
2023/12/06 11:35:56;;;;;;;17.07;3.67;;;21.50;99.90;;;;;;5074192;28;20176;-74
2023/12/06 11:38:33;;;;;;;14.50;3.90;;;21.50;99.90;;;;;;5075215;28;20206;-73
2023/12/06 11:41:01;;;;;;;20.43;3.43;;;21.40;99.90;;;;;;5074297;28;20239;-77
2023/12/06 11:43:37;;;;;;;16.17;3.37;;;21.40;99.90;;;;;;5074980;28;20187;-75
2023/12/06 11:46:09;;;;;;;22.10;4.23;;;21.40;99.90;;;;;;5075685;28;20171;-76
2023/12/06 11:48:43;;;;;;;14.30;3.83;;;21.40;99.90;;;;;;5075030;28;20196;-73
2023/12/06 11:51:21;;;;;;;18.70;4.47;;;21.40;99.90;;;;;;5075540;28;20180;-72
2023/12/06 11:53:51;;;;;;;18.73;3.43;;;21.40;99.90;;;;;;5074218;28;20179;-77
2023/12/06 11:56:26;;;;;;;17.73;4.30;;;21.40;99.90;;;;;;5074300;28;20194;-75
2023/12/06 11:58:54;;;;;;;13.90;3.90;;;21.40;99.90;;;;;;5074120;28;20266;-76
2023/12/06 12:01:25;;;;;;;16.70;4.27;;;21.40;99.90;;;;;;5073887;28;20175;-77
2023/12/06 12:03:53;;;;;;;14.63;3.67;;;21.30;99.90;;;;;;5072483;28;20180;-75
2023/12/06 12:06:23;;;;;;;17.37;4.37;;;21.30;99.90;;;;;;5072544;28;20175;-76
2023/12/06 12:08:50;;;;;;;18.70;3.43;;;21.20;99.90;;;;;;5073461;28;20218;-76
2023/12/06 12:11:19;;;;;;;11.63;3.20;;;21.20;99.90;;;;;;5073101;28;20180;-74
2023/12/06 12:13:49;;;;;;;20.43;3.93;;;21.20;99.90;;;;;;5074671;28;20182;-72
2023/12/06 12:16:19;;;;;;;15.50;3.70;;;21.10;99.90;;;;;;5073799;28;20233;-69
2023/12/06 12:18:46;;;;;;;14.70;4.03;;;21.00;99.90;;;;;;5074077;28;20211;-69
2023/12/06 12:21:16;;;;;;;13.93;3.63;;;21.00;99.90;;;;;;5073790;28;20175;-70
2023/12/06 12:23:45;;;;;;;17.93;4.80;;;20.90;99.90;;;;;;5074175;28;20574;-69
2023/12/06 12:26:17;;;;;;;17.83;3.50;;;20.90;99.90;;;;;;5073639;28;20172;-71
2023/12/06 12:28:45;;;;;;;13.20;3.80;;;20.90;99.90;;;;;;5071832;28;20234;-68
2023/12/06 12:31:20;;;;;;;17.67;5.70;;;20.80;99.90;;;;;;5071589;28;20188;-68
2023/12/06 12:33:47;;;;;;;27.20;4.40;;;20.80;99.90;;;;;;5073571;28;20221;-70
2023/12/06 12:36:16;;;;;;;12.80;3.90;;;20.70;99.90;;;;;;5073342;28;20168;-71
2023/12/06 12:38:44;;;;;;;15.97;3.63;;;20.70;99.90;;;;;;5073216;28;20191;-71
2023/12/06 12:41:14;;;;;;;17.30;3.77;;;20.60;99.90;;;;;;5073078;28;20199;-69
2023/12/06 12:43:42;;;;;;;18.70;3.93;;;20.60;99.90;;;;;;5073543;28;20180;-69
2023/12/06 12:46:11;;;;;;;15.33;3.80;;;20.70;99.90;;;;;;5073188;28;20176;-68
2023/12/06 12:48:38;;;;;;;16.40;3.70;;;20.60;99.90;;;;;;5073099;28;20284;-70
2023/12/06 12:51:12;;;;;;;14.93;3.30;;;20.60;99.90;;;;;;5073358;28;20206;-72
2023/12/06 12:53:44;;;;;;;18.80;3.83;;;20.50;99.90;;;;;;5073206;28;20159;-68